Time;durP1;ratioP1;P1;durP2;ratioP2;P2;SDS_P1;SDS_P2;PMS_P1;PMS_P2;Temp;Humidity;BMP_temperature;BMP_pressure;BME280_temperature;BME280_humidity;BME280_pressure;Samples;Min_cycle;Max_cycle;Signal;HPM_P1;HPM_P2
2024/01/12 00:01:51;;;;;;;14.30;8.70;;;;;;;-2.37;100.00;148075.22;10630678;27;20047;-78
2024/01/12 00:06:53;;;;;;;13.50;8.20;;;;;;;-2.22;100.00;148112.25;10633051;27;20043;-78
2024/01/12 00:11:55;;;;;;;12.55;8.60;;;;;;;-2.21;100.00;148114.84;10630307;27;20045;-78
2024/01/12 00:16:57;;;;;;;11.57;8.60;;;;;;;-2.13;99.96;148133.97;10647114;27;20099;-78
2024/01/12 00:21:58;;;;;;;11.88;9.02;;;;;;;-2.09;99.73;148144.19;10629168;27;20035;-77
2024/01/12 00:27:00;;;;;;;11.75;8.48;;;;;;;-2.15;100.00;148128.88;10629004;27;20035;-77
2024/01/12 00:32:05;;;;;;;11.35;8.13;;;;;;;-2.15;100.00;148130.16;10629125;27;20119;-77
2024/01/12 00:37:07;;;;;;;10.77;7.85;;;;;;;-2.11;100.00;148139.09;10626947;27;20039;-78
2024/01/12 00:42:08;;;;;;;12.65;8.10;;;;;;;-2.09;100.00;148145.47;10627860;27;20035;-77
2024/01/12 00:47:10;;;;;;;13.32;9.02;;;;;;;-1.93;100.00;148185.09;10646217;27;20050;-79
2024/01/12 00:52:12;;;;;;;11.20;8.05;;;;;;;-2.11;100.00;148140.38;10627028;27;20115;-77
2024/01/12 00:57:14;;;;;;;9.18;7.28;;;;;;;-1.89;100.00;148195.34;10629110;27;20042;-77
2024/01/12 01:02:15;;;;;;;9.43;6.88;;;;;;;-2.12;100.00;148137.84;10644799;27;20043;-78
2024/01/12 01:07:17;;;;;;;10.00;7.32;;;;;;;-2.37;100.00;148073.94;10627219;27;20125;-78
2024/01/12 01:12:19;;;;;;;12.98;8.13;;;;;;;-2.28;100.00;148098.19;10626508;27;20067;-77
2024/01/12 01:17:21;;;;;;;8.98;6.72;;;;;;;-2.39;100.00;148070.13;10626691;27;20418;-77
2024/01/12 01:22:23;;;;;;;9.70;7.90;;;;;;;-2.45;100.00;148053.50;10625877;28;20084;-77
2024/01/12 01:27:25;;;;;;;10.40;8.68;;;;;;;-1.95;100.00;148178.69;10627618;27;20078;-77
2024/01/12 01:32:27;;;;;;;11.20;8.45;;;;;;;-2.05;100.00;148154.41;10626931;27;20099;-77
2024/01/12 01:37:29;;;;;;;11.82;8.73;;;;;;;-1.79;100.00;148220.88;10627801;27;20035;-78
2024/01/12 01:42:31;;;;;;;8.85;7.38;;;;;;;-1.83;100.00;148209.38;10632627;27;20045;-78
2024/01/12 01:47:33;;;;;;;9.95;7.35;;;;;;;-1.88;100.00;148196.59;10631965;27;20047;-79
2024/01/12 01:52:35;;;;;;;8.88;7.63;;;;;;;-2.11;100.00;148139.09;10627980;27;20039;-78
2024/01/12 01:57:39;;;;;;;9.93;7.45;;;;;;;-2.24;100.00;148105.88;10633207;27;20035;-77
2024/01/12 02:02:41;;;;;;;9.18;7.00;;;;;;;-2.35;100.00;148080.28;10634588;27;20116;-78
2024/01/12 02:07:43;;;;;;;8.68;6.35;;;;;;;-2.18;100.00;148121.19;10637222;27;20486;-78
2024/01/12 02:12:45;;;;;;;8.98;5.47;;;;;;;-2.17;100.00;148123.75;10639191;27;20058;-77
2024/01/12 02:17:47;;;;;;;8.80;6.10;;;;;;;-1.89;100.00;148195.34;10638323;27;20043;-77
2024/01/12 02:22:49;;;;;;;11.93;6.88;;;;;;;-1.78;100.00;148222.16;10638184;27;20403;-78
2024/01/12 02:27:51;;;;;;;9.65;6.05;;;;;;;-2.01;100.00;148164.66;10654588;27;20491;-77
2024/01/12 02:32:53;;;;;;;8.27;5.57;;;;;;;-2.06;100.00;148153.16;10637630;27;20126;-79
2024/01/12 02:37:55;;;;;;;8.98;6.38;;;;;;;-1.97;100.00;148173.59;10633048;27;20567;-77
2024/01/12 02:42:56;;;;;;;7.40;6.28;;;;;;;-1.84;100.00;148206.84;10636716;27;20039;-77
2024/01/12 02:47:58;;;;;;;8.75;5.88;;;;;;;-1.96;100.00;148177.41;10636671;27;20055;-79
2024/01/12 02:53:00;;;;;;;7.10;5.40;;;;;;;-2.01;100.00;148164.66;10631835;27;20130;-78
2024/01/12 02:58:02;;;;;;;9.25;5.38;;;;;;;-1.96;100.00;148177.41;10633955;27;20049;-77
2024/01/12 03:03:04;;;;;;;7.78;5.25;;;;;;;-2.03;100.00;148160.84;10633683;27;20047;-78
2024/01/12 03:08:06;;;;;;;9.15;6.30;;;;;;;-2.04;100.00;148156.97;10631107;27;20027;-78
2024/01/12 03:13:08;;;;;;;8.05;5.90;;;;;;;-2.00;100.00;148165.91;10630346;27;20418;-77
2024/01/12 03:18:10;;;;;;;10.90;6.22;;;;;;;-1.83;100.00;148209.38;10635166;27;20063;-77
2024/01/12 03:23:12;;;;;;;10.13;6.63;;;;;;;-2.05;100.00;148155.69;10634872;27;20039;-77
2024/01/12 03:28:14;;;;;;;6.43;5.47;;;;;;;-2.15;100.00;148130.16;10634571;27;20042;-78
2024/01/12 03:33:15;;;;;;;11.23;6.63;;;;;;;-2.11;100.00;148139.09;10633678;27;20066;-77
2024/01/12 03:38:17;;;;;;;9.77;7.60;;;;;;;-2.05;100.00;148155.69;10631500;27;20555;-77
2024/01/12 03:43:19;;;;;;;7.88;6.50;;;;;;;-2.06;100.00;148151.88;10629327;27;20062;-77
2024/01/12 03:48:21;;;;;;;9.68;6.25;;;;;;;-2.06;100.00;148151.88;10629193;27;20039;-77
2024/01/12 03:53:23;;;;;;;7.35;6.10;;;;;;;-2.11;100.00;148140.38;10630360;27;20095;-78
2024/01/12 03:58:25;;;;;;;8.27;6.57;;;;;;;-2.15;100.00;148128.88;10630062;27;20049;-76
2024/01/12 04:03:26;;;;;;;8.13;6.53;;;;;;;-2.17;100.00;148123.75;10628953;27;20047;-77
2024/01/12 04:08:28;;;;;;;7.50;5.93;;;;;;;-1.94;100.00;148181.28;10631293;27;20039;-77
2024/01/12 04:13:30;;;;;;;9.20;6.72;;;;;;;-2.04;100.00;148158.28;10630596;27;20047;-77
2024/01/12 04:18:32;;;;;;;11.77;6.40;;;;;;;-1.83;100.00;148210.66;10644823;27;20047;-78
2024/01/12 04:23:34;;;;;;;9.70;6.00;;;;;;;-2.23;100.00;148108.44;10628265;27;20452;-76
2024/01/12 04:28:36;;;;;;;9.23;6.55;;;;;;;-2.26;100.00;148102.03;10627710;27;20084;-77
2024/01/12 04:33:38;;;;;;;8.00;7.15;;;;;;;-2.31;100.00;148089.25;10628156;27;20046;-78
2024/01/12 04:38:40;;;;;;;10.00;6.72;;;;;;;-2.29;100.00;148095.66;10627328;27;20050;-78
2024/01/12 04:43:42;;;;;;;10.85;7.55;;;;;;;-2.21;100.00;148113.53;10627374;27;20449;-78
2024/01/12 04:48:44;;;;;;;10.90;7.38;;;;;;;-2.13;100.00;148133.97;10627768;28;20088;-78
2024/01/12 04:53:46;;;;;;;8.05;6.25;;;;;;;-1.99;100.00;148168.47;10629011;27;20118;-79
2024/01/12 04:58:48;;;;;;;8.30;6.13;;;;;;;-1.89;100.00;148194.06;10630593;27;20035;-78
2024/01/12 05:03:49;;;;;;;10.05;6.10;;;;;;;-1.94;100.00;148182.56;10627757;28;20043;-78
2024/01/12 05:08:51;;;;;;;7.63;5.97;;;;;;;-2.06;100.00;148153.16;10628544;27;20589;-77
2024/01/12 05:13:53;;;;;;;9.00;5.88;;;;;;;-2.09;100.00;148144.19;10628958;27;20047;-77
2024/01/12 05:18:56;;;;;;;8.68;6.03;;;;;;;-2.07;100.00;148149.34;10633007;27;20035;-80
2024/01/12 05:23:58;;;;;;;8.07;6.20;;;;;;;-2.06;100.00;148151.88;10634354;27;20047;-78
2024/01/12 05:29:00;;;;;;;7.10;5.28;;;;;;;-2.03;100.00;148160.84;10634169;27;20484;-77
2024/01/12 05:34:02;;;;;;;8.05;4.82;;;;;;;-1.89;100.00;148195.34;10638383;27;20070;-79
2024/01/12 05:39:05;;;;;;;7.25;5.20;;;;;;;-2.05;100.00;148154.41;10658126;27;20031;-80
2024/01/12 05:44:07;;;;;;;8.15;5.90;;;;;;;-2.05;100.00;148155.69;10641348;27;20052;-78
2024/01/12 05:49:09;;;;;;;9.05;5.90;;;;;;;-2.04;100.00;148156.97;10636491;27;20045;-78
2024/01/12 05:54:10;;;;;;;6.28;4.63;;;;;;;-1.87;100.00;148199.16;10636830;27;20047;-78
2024/01/12 05:59:15;;;;;;;8.68;4.57;;;;;;;-1.40;100.00;148318.06;10651903;27;20106;-78
2024/01/12 06:04:17;;;;;;;6.40;4.63;;;;;;;-1.35;100.00;148329.56;10635160;27;20056;-77
2024/01/12 06:09:19;;;;;;;7.32;4.25;;;;;;;-1.46;100.00;148301.41;10639064;27;20375;-79
2024/01/12 06:14:21;;;;;;;6.13;4.38;;;;;;;-1.34;100.00;148332.09;10641711;27;20047;-79
2024/01/12 06:19:24;;;;;;;7.50;4.63;;;;;;;-1.52;100.00;148288.63;10636096;27;20040;-79
2024/01/12 06:24:26;;;;;;;5.18;3.63;;;;;;;-1.45;100.00;148304.00;10639775;27;20039;-80
2024/01/12 06:29:28;;;;;;;5.72;3.47;;;;;;;-1.48;100.00;148296.31;10638151;27;20046;-79
2024/01/12 06:34:30;;;;;;;4.15;3.20;;;;;;;-1.30;100.00;148343.59;10637274;27;20118;-78
2024/01/12 06:39:31;;;;;;;6.95;4.38;;;;;;;-1.25;100.00;148353.84;10639805;27;20042;-79
2024/01/12 06:44:38;;;;;;;6.70;4.85;;;;;;;-1.43;100.00;148309.09;10636485;27;20085;-78
2024/01/12 06:49:45;;;;;;;5.32;3.80;;;;;;;-1.44;100.00;148307.81;10638872;27;20043;-78
2024/01/12 06:54:47;;;;;;;6.03;4.30;;;;;;;-1.31;100.00;148339.78;10635598;27;20399;-78
2024/01/12 06:59:48;;;;;;;5.90;3.90;;;;;;;-1.31;100.00;148341.06;10637973;27;20035;-78
2024/01/12 07:04:50;;;;;;;4.65;3.45;;;;;;;-1.36;100.00;148328.28;10635635;27;20047;-78
2024/01/12 07:09:52;;;;;;;5.53;3.40;;;;;;;-1.33;100.00;148335.97;10636702;27;20544;-77
2024/01/12 07:14:54;;;;;;;5.07;3.55;;;;;;;-1.33;100.00;148335.97;10633670;27;20043;-77
2024/01/12 07:19:56;;;;;;;4.68;3.13;;;;;;;-1.43;100.00;148309.09;10636078;27;20043;-80
2024/01/12 07:24:58;;;;;;;5.03;3.80;;;;;;;-1.28;100.00;148347.47;10640579;27;20039;-78
2024/01/12 07:29:59;;;;;;;5.57;3.78;;;;;;;-1.34;100.00;148332.09;10640205;27;20043;-78
2024/01/12 07:35:01;;;;;;;4.82;3.10;;;;;;;-1.37;100.00;148324.47;10634045;27;20051;-77
2024/01/12 07:40:04;;;;;;;4.10;2.83;;;;;;;-1.24;100.00;148356.38;10634049;27;20039;-78
2024/01/12 07:45:07;;;;;;;5.13;4.13;;;;;;;-1.35;100.00;148330.84;10634357;27;20047;-80
2024/01/12 07:50:09;;;;;;;8.25;4.90;;;;;;;-1.23;100.00;148360.25;10636246;27;20189;-78
2024/01/12 07:55:11;;;;;;;4.05;3.08;;;;;;;-1.19;100.00;148369.22;10639059;27;20035;-79
2024/01/12 08:00:14;;;;;;;5.30;3.95;;;;;;;-1.15;99.80;148379.41;10638675;27;20039;-79
2024/01/12 08:05:16;;;;;;;6.40;4.57;;;;;;;-1.30;100.00;148343.59;10638483;27;20411;-80
2024/01/12 08:10:18;;;;;;;5.55;3.92;;;;;;;-1.25;100.00;148353.84;10636587;27;20039;-80
2024/01/12 08:15:20;;;;;;;8.55;4.10;;;;;;;-1.19;99.84;148370.50;10636228;27;20039;-78
2024/01/12 08:20:22;;;;;;;5.57;4.25;;;;;;;-1.31;100.00;148339.78;10648862;27;20066;-79
2024/01/12 08:25:24;;;;;;;5.18;3.97;;;;;;;-1.12;99.33;148388.38;10632362;27;20058;-80
2024/01/12 08:30:29;;;;;;;7.20;3.78;;;;;;;-1.19;100.00;148369.22;10632223;27;20049;-78
2024/01/12 08:35:31;;;;;;;6.15;4.45;;;;;;;-1.19;100.00;148370.50;10633521;27;20046;-78
2024/01/12 08:40:33;;;;;;;6.45;4.15;;;;;;;-1.27;100.00;148350.03;10632714;27;20046;-79
2024/01/12 08:45:35;;;;;;;5.38;4.10;;;;;;;-1.18;100.00;148373.03;10630378;27;20039;-78
2024/01/12 08:50:37;;;;;;;4.45;3.85;;;;;;;-1.04;99.49;148407.56;10630755;27;20060;-78
2024/01/12 08:55:39;;;;;;;5.90;4.50;;;;;;;-1.10;100.00;148392.22;10630830;27;20407;-77
2024/01/12 09:00:41;;;;;;;3.67;3.10;;;;;;;-1.06;100.00;148403.75;10626102;27;20045;-76
2024/01/12 09:05:42;;;;;;;7.38;3.05;;;;;;;-0.99;100.00;148419.06;10632297;27;20039;-75
2024/01/12 09:10:44;;;;;;;4.15;2.50;;;;;;;-0.79;100.00;148470.25;10635670;27;20099;-75
2024/01/12 09:15:46;;;;;;;3.05;2.47;;;;;;;-0.90;100.00;148443.38;10632909;27;20047;-76
2024/01/12 09:20:48;;;;;;;4.15;2.90;;;;;;;-1.01;100.00;148415.25;10633463;27;20115;-75
2024/01/12 09:25:52;;;;;;;5.13;2.60;;;;;;;-0.91;100.00;148439.53;10633674;27;20586;-76
2024/01/12 09:30:56;;;;;;;4.15;3.53;;;;;;;-0.90;100.00;148442.09;10634009;27;20126;-76
2024/01/12 09:35:58;;;;;;;3.42;2.75;;;;;;;-0.80;100.00;148467.66;10635432;27;20039;-75
2024/01/12 09:41:03;;;;;;;4.57;3.03;;;;;;;-0.80;100.00;148468.97;10634203;27;20039;-74
2024/01/12 09:46:08;;;;;;;4.00;2.95;;;;;;;-0.70;100.00;148493.28;10633592;27;20039;-75
2024/01/12 09:51:12;;;;;;;3.92;2.60;;;;;;;-0.73;100.00;148485.59;10634364;27;20035;-76
2024/01/12 09:56:14;;;;;;;3.47;2.70;;;;;;;-0.72;100.00;148488.13;10633471;27;20506;-75
2024/01/12 10:01:17;;;;;;;3.70;2.95;;;;;;;-0.76;100.00;148477.91;10632723;27;20035;-76
2024/01/12 10:06:19;;;;;;;2.85;2.53;;;;;;;-0.80;100.00;148467.66;10631565;27;20039;-76
2024/01/12 10:11:22;;;;;;;4.75;3.33;;;;;;;-0.86;100.00;148452.34;10589751;27;20402;-75
2024/01/12 10:16:28;;;;;;;3.58;2.85;;;;;;;-0.68;100.00;148498.38;10588145;28;20138;-76
2024/01/12 10:21:38;;;;;;;4.72;3.78;;;;;;;-0.70;100.00;148493.28;10618610;27;20180;-76
2024/01/12 10:26:40;;;;;;;4.43;3.40;;;;;;;-0.74;100.00;148483.03;10631113;27;20046;-76
2024/01/12 10:31:44;;;;;;;6.75;4.70;;;;;;;-0.75;100.00;148480.50;10630396;27;20039;-76
2024/01/12 10:36:51;;;;;;;8.00;4.75;;;;;;;-0.71;100.00;148489.41;10631114;27;20067;-75
2024/01/12 10:41:57;;;;;;;;;;;;;;;-0.73;100.00;148485.59;10630666;27;20043;-75
2024/01/12 10:47:04;;;;;;;8.27;5.93;;;;;;;-0.62;100.00;148512.44;10631490;27;19923;-74
2024/01/12 10:52:38;;;;;;;10.27;7.55;;;;;;;-0.73;100.00;148484.31;10631360;27;20403;-75
2024/01/12 10:57:42;;;;;;;8.75;6.68;;;;;;;-0.93;100.00;148434.41;10631581;27;20073;-75
2024/01/12 11:02:47;;;;;;;9.88;6.80;;;;;;;-0.94;100.00;148433.13;10630769;27;20186;-75
2024/01/12 11:07:50;;;;;;;8.40;6.07;;;;;;;-0.94;100.00;148433.13;10628909;27;20047;-76
2024/01/12 11:12:53;;;;;;;6.93;5.00;;;;;;;-0.99;100.00;148420.34;10630155;27;20158;-75
2024/01/12 11:18:00;;;;;;;6.70;6.00;;;;;;;-0.68;100.00;148498.38;10629885;27;20066;-76
2024/01/12 11:23:03;;;;;;;3.78;2.67;;;;;;;-0.68;100.00;148498.38;10629063;27;20126;-75
2024/01/12 11:28:08;;;;;;;3.63;3.10;;;;;;;-0.50;100.00;148543.16;10629718;27;20050;-76
2024/01/12 11:33:10;;;;;;;3.70;2.67;;;;;;;-0.57;100.00;148526.56;10628764;27;20039;-76
2024/01/12 11:38:12;;;;;;;5.60;3.95;;;;;;;-0.55;100.00;148531.66;10628709;27;20491;-76
2024/01/12 11:43:18;;;;;;;4.00;2.58;;;;;;;-0.56;100.00;148527.81;10628703;27;20078;-76
2024/01/12 11:48:19;;;;;;;5.63;3.42;;;;;;;-0.72;100.00;148488.13;10628070;27;20043;-75
2024/01/12 11:53:21;;;;;;;4.97;3.25;;;;;;;-0.98;100.00;148421.63;10627360;27;20049;-76
2024/01/12 11:58:23;;;;;;;7.50;4.90;;;;;;;-1.03;100.00;148411.38;10628272;27;20134;-77
2024/01/12 12:03:26;;;;;;;7.55;4.63;;;;;;;-0.75;100.00;148480.50;10626428;27;20143;-76
2024/01/12 12:08:28;;;;;;;7.78;5.55;;;;;;;-0.78;100.00;148474.09;10627506;27;20035;-76
2024/01/12 12:13:30;;;;;;;9.25;5.68;;;;;;;-0.65;100.00;148504.78;10626882;27;20039;-76
2024/01/12 12:18:38;;;;;;;9.18;6.22;;;;;;;-0.76;100.00;148477.91;10625378;27;20034;-76
2024/01/12 12:23:41;;;;;;;6.40;5.00;;;;;;;-0.66;100.00;148503.53;10625975;27;20055;-77
2024/01/12 12:28:47;;;;;;;7.53;5.32;;;;;;;-0.48;100.00;148548.31;10625979;27;20031;-75
2024/01/12 12:33:49;;;;;;;7.88;5.50;;;;;;;-0.56;100.00;148529.09;10624788;27;20035;-75
2024/01/12 12:38:51;;;;;;;8.25;4.88;;;;;;;-0.65;100.00;148506.06;10625647;27;20474;-76
2024/01/12 12:43:53;;;;;;;6.50;4.95;;;;;;;-0.35;100.00;148581.56;10626061;27;20039;-77
2024/01/12 12:48:56;;;;;;;7.63;4.80;;;;;;;-0.58;100.00;148522.69;10626195;27;20047;-76
2024/01/12 12:53:58;;;;;;;6.35;4.93;;;;;;;-0.45;100.00;148555.94;10626141;27;20047;-75
2024/01/12 12:58:59;;;;;;;5.03;3.50;;;;;;;-0.54;100.00;148534.19;10626861;27;20042;-77
2024/01/12 13:04:01;;;;;;;8.93;5.13;;;;;;;-0.72;100.00;148488.13;10626508;27;20043;-76
2024/01/12 13:09:06;;;;;;;8.65;5.22;;;;;;;-0.47;100.00;148550.84;10627353;27;20499;-76
2024/01/12 13:14:08;;;;;;;9.02;5.03;;;;;;;-0.63;100.00;148511.16;10624862;27;20097;-76
2024/01/12 13:19:09;;;;;;;7.78;4.63;;;;;;;-0.53;100.00;148535.50;10626184;27;20399;-76
2024/01/12 13:24:28;;;;;;;7.45;5.28;;;;;;;-0.38;100.00;148573.88;10584271;28;20135;-77
2024/01/12 13:29:30;;;;;;;7.40;5.20;;;;;;;-0.38;100.00;148573.88;10597909;27;20064;-76
2024/01/12 13:34:31;;;;;;;10.95;5.63;;;;;;;-0.61;100.00;148516.31;10626687;27;20470;-76
2024/01/12 13:39:33;;;;;;;9.68;5.88;;;;;;;-0.44;100.00;148557.22;10627640;27;20131;-76
2024/01/12 13:44:35;;;;;;;8.18;5.32;;;;;;;-0.26;100.00;148603.34;10628247;28;20127;-76
2024/01/12 13:49:37;;;;;;;7.85;5.45;;;;;;;-0.40;100.00;148567.47;10627975;27;20088;-76
2024/01/12 13:54:40;;;;;;;7.82;5.75;;;;;;;-0.51;100.00;148540.63;10653953;27;20065;-76
2024/01/12 13:59:43;;;;;;;10.50;6.88;;;;;;;-0.41;100.00;148566.19;10635162;27;20441;-75
2024/01/12 14:04:45;;;;;;;104.63;34.83;;;;;;;-0.25;100.00;148605.88;10650419;27;20043;-75
2024/01/12 14:09:54;;;;;;;91.47;30.50;;;;;;;-0.31;100.00;148591.81;10633411;27;20035;-75
2024/01/12 14:14:56;;;;;;;69.93;26.63;;;;;;;-0.26;100.00;148603.34;10633066;27;20075;-76
2024/01/12 14:19:58;;;;;;;56.47;21.75;;;;;;;-0.33;100.00;148585.41;10631858;27;20490;-76
2024/01/12 14:24:59;;;;;;;65.72;22.88;;;;;;;-0.26;100.00;148603.34;10631888;27;20047;-76
2024/01/12 14:30:02;;;;;;;85.15;26.25;;;;;;;-0.29;100.00;148595.66;10632051;27;20079;-76
2024/01/12 14:35:04;;;;;;;47.78;18.67;;;;;;;-0.43;100.00;148561.09;10631002;27;20061;-76
2024/01/12 14:40:07;;;;;;;34.28;17.17;;;;;;;-0.39;100.00;148571.34;10634327;27;20407;-77
2024/01/12 14:45:09;;;;;;;13.70;9.70;;;;;;;-0.52;100.00;148539.34;10617602;27;20047;-77
2024/01/12 14:50:12;;;;;;;11.50;8.75;;;;;;;-0.48;100.00;148547.03;10631066;27;20043;-76
2024/01/12 14:55:14;;;;;;;48.08;21.33;;;;;;;-0.52;100.00;148539.34;10628787;27;20051;-76
2024/01/12 15:00:16;;;;;;;31.88;17.00;;;;;;;-0.38;100.00;148572.59;10629715;27;20059;-76
2024/01/12 15:05:18;;;;;;;12.30;9.02;;;;;;;-0.49;100.00;148545.72;10629275;27;20047;-74
2024/01/12 15:10:20;;;;;;;26.83;14.13;;;;;;;-0.31;100.00;148590.50;10630047;27;20110;-76
2024/01/12 15:15:22;;;;;;;11.60;8.82;;;;;;;-0.44;100.00;148557.22;10630582;27;20411;-75
2024/01/12 15:20:24;;;;;;;7.07;5.63;;;;;;;-0.67;100.00;148500.94;10629434;27;20043;-75
2024/01/12 15:25:26;;;;;;;10.38;8.77;;;;;;;-0.42;100.00;148562.38;10628864;27;20121;-76
2024/01/12 15:30:28;;;;;;;14.13;9.02;;;;;;;-0.35;100.00;148581.56;10628979;27;20035;-77
2024/01/12 15:35:30;;;;;;;14.43;10.70;;;;;;;-0.40;100.00;148567.47;10628229;27;20043;-75
2024/01/12 15:40:32;;;;;;;6.28;4.90;;;;;;;-0.62;100.00;148513.75;10626592;27;20046;-75
2024/01/12 15:45:34;;;;;;;6.78;5.57;;;;;;;-0.70;100.00;148492.00;10628092;27;20403;-76
2024/01/12 15:50:35;;;;;;;8.70;6.38;;;;;;;-0.38;100.00;148573.88;10628671;27;20122;-76
2024/01/12 15:55:37;;;;;;;9.20;6.47;;;;;;;-0.43;100.00;148559.81;10627793;27;20063;-75
2024/01/12 16:00:39;;;;;;;6.80;6.10;;;;;;;-0.28;100.00;148599.47;10626807;27;20080;-76
2024/01/12 16:05:41;;;;;;;8.20;6.35;;;;;;;-0.36;100.00;148577.72;10624963;27;20039;-75
2024/01/12 16:10:44;;;;;;;6.28;5.55;;;;;;;-0.41;100.00;148566.19;10625580;27;20110;-75
2024/01/12 16:15:46;;;;;;;8.32;6.50;;;;;;;-0.46;100.00;148553.41;10640757;27;20063;-76
2024/01/12 16:20:52;;;;;;;8.38;7.47;;;;;;;-0.39;100.00;148570.06;10627102;27;20039;-76
2024/01/12 16:25:53;;;;;;;9.05;7.20;;;;;;;-0.39;100.00;148571.34;10625874;27;20490;-76
2024/01/12 16:30:55;;;;;;;8.27;7.43;;;;;;;-0.44;100.00;148557.22;10642426;27;20043;-76
2024/01/12 16:35:57;;;;;;;8.32;7.15;;;;;;;-0.52;100.00;148538.06;10625520;27;20495;-76
2024/01/12 16:40:59;;;;;;;11.73;8.18;;;;;;;-0.52;100.00;148538.06;10625461;27;20035;-76
2024/01/12 16:46:02;;;;;;;7.93;7.00;;;;;;;-0.48;100.00;148547.03;10624232;27;20444;-77
2024/01/12 16:51:04;;;;;;;6.55;5.63;;;;;;;-0.29;100.00;148596.91;10626378;27;20043;-76
2024/01/12 16:56:06;;;;;;;9.93;5.60;;;;;;;-0.53;100.00;148535.50;10624959;27;20055;-75
2024/01/12 17:01:08;;;;;;;10.45;6.07;;;;;;;-0.40;100.00;148567.47;10625028;27;20567;-76
2024/01/12 17:06:09;;;;;;;6.95;5.82;;;;;;;-0.49;100.00;148545.72;10625359;27;20134;-76
2024/01/12 17:11:11;;;;;;;8.45;5.82;;;;;;;-0.61;100.00;148515.03;10627195;27;20513;-77
2024/01/12 17:16:13;;;;;;;7.82;5.95;;;;;;;-0.78;100.00;148472.81;10626498;28;20240;-77
2024/01/12 17:21:25;;;;;;;8.98;6.63;;;;;;;-0.58;100.00;148523.94;10625483;27;20092;-76
2024/01/12 17:26:27;;;;;;;16.10;9.45;;;;;;;-0.50;100.00;148543.16;10631109;27;20043;-76
2024/01/12 17:31:30;;;;;;;9.57;7.15;;;;;;;-0.51;100.00;148541.88;10634348;27;20039;-77
2024/01/12 17:36:33;;;;;;;9.80;6.72;;;;;;;-0.31;100.00;148590.50;10634639;27;20081;-77
2024/01/12 17:41:35;;;;;;;10.80;7.43;;;;;;;-0.63;100.00;148509.91;10633844;27;20035;-77
2024/01/12 17:46:37;;;;;;;7.75;5.40;;;;;;;-0.49;100.00;148545.72;10632752;27;20406;-77
2024/01/12 17:51:39;;;;;;;12.02;6.13;;;;;;;-0.59;100.00;148520.13;10632407;27;20035;-75
2024/01/12 17:56:41;;;;;;;9.60;5.78;;;;;;;-0.49;100.00;148545.72;10632323;27;20491;-76
2024/01/12 18:01:43;;;;;;;7.85;5.70;;;;;;;-0.43;100.00;148561.09;10631833;27;20038;-76
2024/01/12 18:06:46;;;;;;;8.57;5.93;;;;;;;-0.32;100.00;148589.22;10631376;27;20051;-75
2024/01/12 18:11:48;;;;;;;6.60;5.32;;;;;;;-0.42;100.00;148562.38;10628975;27;20047;-75
2024/01/12 18:16:50;;;;;;;8.63;6.43;;;;;;;-0.39;100.00;148571.34;10628872;27;20495;-76
2024/01/12 18:21:53;;;;;;;6.72;6.05;;;;;;;-0.38;100.00;148573.88;10611356;27;20487;-75
2024/01/12 18:26:58;;;;;;;8.38;6.60;;;;;;;-0.37;100.00;148576.44;10604001;27;20517;-76
2024/01/12 18:31:59;;;;;;;17.02;14.23;;;;;;;-0.37;100.00;148575.16;10629878;27;20049;-76
2024/01/12 18:37:01;;;;;;;18.58;12.00;;;;;;;-0.29;100.00;148595.66;10627219;27;20448;-76
2024/01/12 18:42:03;;;;;;;29.40;16.42;;;;;;;-0.36;100.00;148578.97;10628248;27;20043;-75
2024/01/12 18:47:07;;;;;;;10.02;7.55;;;;;;;-0.22;100.00;148612.25;10630347;27;20474;-76
2024/01/12 18:52:09;;;;;;;21.00;11.43;;;;;;;-0.18;100.00;148622.50;10630315;27;20383;-76
2024/01/12 18:57:11;;;;;;;7.85;7.05;;;;;;;-0.31;100.00;148591.81;10633331;27;20043;-77
2024/01/12 19:02:13;;;;;;;13.20;9.77;;;;;;;-0.33;100.00;148585.41;10634938;27;20046;-77
2024/01/12 19:07:15;;;;;;;9.75;7.82;;;;;;;-0.19;100.00;148621.22;10635266;27;20067;-77
2024/01/12 19:12:17;;;;;;;11.57;9.98;;;;;;;-0.12;100.00;148637.88;10634106;27;20103;-77
2024/01/12 19:17:19;;;;;;;10.77;7.13;;;;;;;-0.21;100.00;148616.13;10633763;27;20043;-77
2024/01/12 19:22:21;;;;;;;10.55;8.02;;;;;;;-0.17;100.00;148625.09;10633694;27;20467;-77
2024/01/12 19:27:23;;;;;;;8.60;6.50;;;;;;;-0.24;100.00;148608.44;10634171;27;20465;-76
2024/01/12 19:32:27;;;;;;;10.48;8.00;;;;;;;-0.25;100.00;148605.88;10633298;27;20046;-77
2024/01/12 19:37:29;;;;;;;9.68;7.13;;;;;;;-0.16;100.00;148628.91;10634745;27;20058;-78
2024/01/12 19:42:31;;;;;;;10.02;7.30;;;;;;;-0.11;100.00;148641.72;10631881;27;20051;-79
2024/01/12 19:47:35;;;;;;;9.80;7.32;;;;;;;-0.25;100.00;148605.88;10634531;27;20043;-77
2024/01/12 19:52:37;;;;;;;13.60;10.13;;;;;;;-0.27;100.00;148602.06;10633259;27;20445;-77
2024/01/12 19:57:39;;;;;;;10.88;7.75;;;;;;;-0.21;100.00;148614.84;10628355;27;20039;-76
2024/01/12 20:02:41;;;;;;;9.48;8.32;;;;;;;-0.25;100.00;148605.88;10629565;27;20035;-76
2024/01/12 20:07:43;;;;;;;9.43;7.88;;;;;;;-0.17;100.00;148625.09;10627257;27;20412;-76
2024/01/12 20:12:46;;;;;;;9.15;7.22;;;;;;;-0.12;100.00;148639.16;10626787;27;20039;-77
2024/01/12 20:17:49;;;;;;;11.80;7.07;;;;;;;-0.17;100.00;148625.09;10628614;27;20047;-77
2024/01/12 20:22:51;;;;;;;10.57;8.25;;;;;;;-0.15;100.00;148630.19;10629169;27;20039;-77
2024/01/12 20:27:53;;;;;;;8.40;7.35;;;;;;;-0.23;100.00;148610.97;10628651;27;20039;-77
2024/01/12 20:32:54;;;;;;;8.40;7.03;;;;;;;-0.21;100.00;148616.13;10626858;27;20491;-77
2024/01/12 20:37:56;;;;;;;10.25;7.35;;;;;;;-0.16;100.00;148627.66;10629255;27;20051;-77
2024/01/12 20:43:00;;;;;;;8.70;6.82;;;;;;;-0.14;100.00;148632.75;10629131;27;20042;-77
2024/01/12 20:48:03;;;;;;;8.80;6.25;;;;;;;-0.15;100.00;148630.19;10627568;27;20074;-76
2024/01/12 20:53:09;;;;;;;8.98;6.82;;;;;;;-0.22;100.00;148613.56;10627311;27;20041;-77
2024/01/12 20:58:11;;;;;;;8.35;6.13;;;;;;;-0.04;100.00;148659.66;10627220;27;20383;-75
2024/01/12 21:03:13;;;;;;;7.25;6.13;;;;;;;-0.08;100.00;148649.41;10635439;27;20035;-77
2024/01/12 21:08:15;;;;;;;8.75;5.70;;;;;;;-0.09;100.00;148645.53;10636554;27;20064;-77
2024/01/12 21:13:17;;;;;;;8.35;6.05;;;;;;;-0.05;100.00;148655.78;10635212;27;20486;-76
2024/01/12 21:18:19;;;;;;;8.70;6.22;;;;;;;-0.07;100.00;148651.97;10635759;27;20059;-77
2024/01/12 21:23:21;;;;;;;7.65;6.22;;;;;;;0.05;100.00;148681.41;10636283;27;20054;-77
2024/01/12 21:28:26;;;;;;;9.77;7.32;;;;;;;-0.06;100.00;148653.22;10638845;27;20039;-77
2024/01/12 21:33:28;;;;;;;8.98;6.55;;;;;;;0.01;100.00;148669.91;10636745;27;20043;-77
2024/01/12 21:38:30;;;;;;;11.88;7.15;;;;;;;-0.04;100.00;148659.66;10635970;27;20069;-77
2024/01/12 21:43:32;;;;;;;8.90;6.70;;;;;;;0.02;100.00;148673.72;10636726;27;20554;-78
2024/01/12 21:48:34;;;;;;;7.22;6.45;;;;;;;-0.14;100.00;148634.03;10635177;27;20088;-76
2024/01/12 21:53:35;;;;;;;8.13;6.70;;;;;;;-0.16;100.00;148628.91;10631778;27;20518;-76
2024/01/12 21:58:37;;;;;;;8.60;6.32;;;;;;;-0.01;100.00;148667.28;10633668;27;20092;-76
2024/01/12 22:03:48;;;;;;;7.22;6.05;;;;;;;0.03;100.00;148676.28;10632290;27;20509;-76
2024/01/12 22:08:50;;;;;;;8.40;6.32;;;;;;;0.02;100.00;148673.72;10631436;27;20096;-77
2024/01/12 22:13:52;;;;;;;7.68;6.90;;;;;;;0.05;100.00;148680.13;10631048;27;20043;-76
2024/01/12 22:18:54;;;;;;;8.82;6.20;;;;;;;0.01;100.00;148671.19;10631718;27;20080;-76
2024/01/12 22:23:56;;;;;;;8.82;7.13;;;;;;;0.06;100.00;148682.69;10629674;27;20125;-76
2024/01/12 22:28:58;;;;;;;8.10;6.50;;;;;;;-0.01;100.00;148666.03;10630935;27;20505;-77
2024/01/12 22:34:00;;;;;;;7.80;6.70;;;;;;;0.02;100.00;148672.44;10630698;27;20039;-77
2024/01/12 22:39:02;;;;;;;8.90;7.25;;;;;;;0.05;100.00;148680.13;10629986;27;20031;-77
2024/01/12 22:44:04;;;;;;;8.07;6.53;;;;;;;-0.04;100.00;148659.66;10630380;27;20039;-75
2024/01/12 22:49:06;;;;;;;8.40;6.50;;;;;;;0.05;100.00;148681.41;10630415;27;20039;-76